sensor_id;sensor_type;location;lat;lon;timestamp;temperature;humidity
67942;SHT31;54731;42.600;23.476;2022-10-16T00:01:37;9.32;74.68
67942;SHT31;54731;42.600;23.476;2022-10-16T00:04:03;9.30;74.65
67942;SHT31;54731;42.600;23.476;2022-10-16T00:06:30;9.28;74.36
67942;SHT31;54731;42.600;23.476;2022-10-16T00:08:55;9.24;74.08
67942;SHT31;54731;42.600;23.476;2022-10-16T00:11:26;9.26;74.29
67942;SHT31;54731;42.600;23.476;2022-10-16T00:13:56;9.30;74.20
67942;SHT31;54731;42.600;23.476;2022-10-16T00:16:22;9.20;74.60
67942;SHT31;54731;42.600;23.476;2022-10-16T00:18:47;9.10;74.72
67942;SHT31;54731;42.600;23.476;2022-10-16T00:21:21;9.07;74.97
67942;SHT31;54731;42.600;23.476;2022-10-16T00:23:50;9.04;75.07
67942;SHT31;54731;42.600;23.476;2022-10-16T00:26:17;9.03;74.98
67942;SHT31;54731;42.600;23.476;2022-10-16T00:28:46;9.04;75.25
67942;SHT31;54731;42.600;23.476;2022-10-16T00:31:12;8.99;75.22
67942;SHT31;54731;42.600;23.476;2022-10-16T00:33:39;8.96;75.18
67942;SHT31;54731;42.600;23.476;2022-10-16T00:36:06;8.93;75.14
67942;SHT31;54731;42.600;23.476;2022-10-16T00:38:31;8.91;75.42
67942;SHT31;54731;42.600;23.476;2022-10-16T00:40:57;8.84;75.81
67942;SHT31;54731;42.600;23.476;2022-10-16T00:46:07;8.83;75.66
67942;SHT31;54731;42.600;23.476;2022-10-16T00:48:35;8.80;75.44
67942;SHT31;54731;42.600;23.476;2022-10-16T00:51:01;8.80;75.75
67942;SHT31;54731;42.600;23.476;2022-10-16T00:53:27;8.69;76.24
67942;SHT31;54731;42.600;23.476;2022-10-16T00:55:53;8.66;76.48
67942;SHT31;54731;42.600;23.476;2022-10-16T00:58:19;8.69;76.56
67942;SHT31;54731;42.600;23.476;2022-10-16T01:00:45;8.70;76.39
67942;SHT31;54731;42.600;23.476;2022-10-16T01:03:34;8.63;76.56
67942;SHT31;54731;42.600;23.476;2022-10-16T01:06:20;8.64;76.42
67942;SHT31;54731;42.600;23.476;2022-10-16T01:09:04;8.57;76.50
67942;SHT31;54731;42.600;23.476;2022-10-16T01:14:13;8.49;76.84
67942;SHT31;54731;42.600;23.476;2022-10-16T01:16:55;8.39;77.19
67942;SHT31;54731;42.600;23.476;2022-10-16T01:20:02;8.45;76.82
67942;SHT31;54731;42.600;23.476;2022-10-16T01:22:39;8.45;76.68
67942;SHT31;54731;42.600;23.476;2022-10-16T01:25:09;8.46;76.63
67942;SHT31;54731;42.600;23.476;2022-10-16T01:27:39;8.46;76.31
67942;SHT31;54731;42.600;23.476;2022-10-16T01:30:29;8.46;76.28
67942;SHT31;54731;42.600;23.476;2022-10-16T01:33:07;8.52;76.10
67942;SHT31;54731;42.600;23.476;2022-10-16T01:35:47;8.49;76.12
67942;SHT31;54731;42.600;23.476;2022-10-16T01:38:27;8.48;76.03
67942;SHT31;54731;42.600;23.476;2022-10-16T01:41:13;8.53;76.01
67942;SHT31;54731;42.600;23.476;2022-10-16T01:43:48;8.55;76.08
67942;SHT31;54731;42.600;23.476;2022-10-16T01:46:17;8.57;75.64
67942;SHT31;54731;42.600;23.476;2022-10-16T01:48:43;8.57;75.56
67942;SHT31;54731;42.600;23.476;2022-10-16T01:51:12;8.60;75.42
67942;SHT31;54731;42.600;23.476;2022-10-16T01:53:39;8.59;75.49
67942;SHT31;54731;42.600;23.476;2022-10-16T01:56:08;8.59;75.14
67942;SHT31;54731;42.600;23.476;2022-10-16T01:58:37;8.62;74.75
67942;SHT31;54731;42.600;23.476;2022-10-16T02:01:07;8.60;75.02
67942;SHT31;54731;42.600;23.476;2022-10-16T02:03:36;8.52;75.31
67942;SHT31;54731;42.600;23.476;2022-10-16T02:06:02;8.50;75.08
67942;SHT31;54731;42.600;23.476;2022-10-16T02:08:29;8.52;75.38
67942;SHT31;54731;42.600;23.476;2022-10-16T02:10:56;8.64;74.40
67942;SHT31;54731;42.600;23.476;2022-10-16T02:15:54;8.63;74.34
67942;SHT31;54731;42.600;23.476;2022-10-16T02:18:19;8.63;74.24
67942;SHT31;54731;42.600;23.476;2022-10-16T02:21:31;8.63;74.19
67942;SHT31;54731;42.600;23.476;2022-10-16T02:23:57;8.66;74.71
67942;SHT31;54731;42.600;23.476;2022-10-16T02:29:15;8.60;75.54
67942;SHT31;54731;42.600;23.476;2022-10-16T02:31:46;8.57;75.82
67942;SHT31;54731;42.600;23.476;2022-10-16T02:34:12;8.59;76.14
67942;SHT31;54731;42.600;23.476;2022-10-16T02:36:39;8.60;76.13
67942;SHT31;54731;42.600;23.476;2022-10-16T02:39:06;8.50;76.24
67942;SHT31;54731;42.600;23.476;2022-10-16T02:41:32;8.45;76.54
67942;SHT31;54731;42.600;23.476;2022-10-16T02:43:57;8.46;76.51
67942;SHT31;54731;42.600;23.476;2022-10-16T02:46:22;8.42;76.71
67942;SHT31;54731;42.600;23.476;2022-10-16T02:48:48;8.36;76.87
67942;SHT31;54731;42.600;23.476;2022-10-16T02:51:13;8.32;77.17
67942;SHT31;54731;42.600;23.476;2022-10-16T02:53:38;8.32;76.89
67942;SHT31;54731;42.600;23.476;2022-10-16T02:56:04;8.28;77.13
67942;SHT31;54731;42.600;23.476;2022-10-16T02:58:29;8.24;77.13
67942;SHT31;54731;42.600;23.476;2022-10-16T03:00:55;8.18;77.17
67942;SHT31;54731;42.600;23.476;2022-10-16T03:03:20;8.15;77.20
67942;SHT31;54731;42.600;23.476;2022-10-16T03:05:46;8.08;76.85
67942;SHT31;54731;42.600;23.476;2022-10-16T03:08:12;8.05;76.53
67942;SHT31;54731;42.600;23.476;2022-10-16T03:10:37;8.02;76.62
67942;SHT31;54731;42.600;23.476;2022-10-16T03:13:03;7.99;77.03
67942;SHT31;54731;42.600;23.476;2022-10-16T03:15:28;7.94;77.04
67942;SHT31;54731;42.600;23.476;2022-10-16T03:17:53;7.92;77.18
67942;SHT31;54731;42.600;23.476;2022-10-16T03:20:19;7.77;77.27
67942;SHT31;54731;42.600;23.476;2022-10-16T03:22:44;7.71;77.42
67942;SHT31;54731;42.600;23.476;2022-10-16T03:25:09;7.71;77.64
67942;SHT31;54731;42.600;23.476;2022-10-16T03:27:35;7.68;77.90
67942;SHT31;54731;42.600;23.476;2022-10-16T03:30:00;7.71;77.91
67942;SHT31;54731;42.600;23.476;2022-10-16T03:32:25;7.74;77.94
67942;SHT31;54731;42.600;23.476;2022-10-16T03:34:51;7.73;77.88
67942;SHT31;54731;42.600;23.476;2022-10-16T03:37:16;7.64;77.98
67942;SHT31;54731;42.600;23.476;2022-10-16T03:39:41;7.51;78.80
67942;SHT31;54731;42.600;23.476;2022-10-16T03:42:07;7.50;78.88
67942;SHT31;54731;42.600;23.476;2022-10-16T03:44:32;7.50;78.88
67942;SHT31;54731;42.600;23.476;2022-10-16T03:46:57;7.43;79.01
67942;SHT31;54731;42.600;23.476;2022-10-16T03:49:23;7.42;79.25
67942;SHT31;54731;42.600;23.476;2022-10-16T03:51:48;7.34;79.49
67942;SHT31;54731;42.600;23.476;2022-10-16T03:54:13;7.33;79.37
67942;SHT31;54731;42.600;23.476;2022-10-16T03:56:38;7.28;79.55
67942;SHT31;54731;42.600;23.476;2022-10-16T03:59:04;7.33;79.55
67942;SHT31;54731;42.600;23.476;2022-10-16T04:01:29;7.31;79.60
67942;SHT31;54731;42.600;23.476;2022-10-16T04:03:55;7.34;79.54
67942;SHT31;54731;42.600;23.476;2022-10-16T04:06:20;7.37;79.42
67942;SHT31;54731;42.600;23.476;2022-10-16T04:08:45;7.34;79.40
67942;SHT31;54731;42.600;23.476;2022-10-16T04:11:11;7.31;79.22
67942;SHT31;54731;42.600;23.476;2022-10-16T04:13:36;7.30;79.22
67942;SHT31;54731;42.600;23.476;2022-10-16T04:16:01;7.27;79.26
67942;SHT31;54731;42.600;23.476;2022-10-16T04:18:27;7.31;79.22
67942;SHT31;54731;42.600;23.476;2022-10-16T04:20:53;7.31;79.27
67942;SHT31;54731;42.600;23.476;2022-10-16T04:23:18;7.30;79.33
67942;SHT31;54731;42.600;23.476;2022-10-16T04:25:43;7.28;79.42
67942;SHT31;54731;42.600;23.476;2022-10-16T04:28:09;7.28;79.21
67942;SHT31;54731;42.600;23.476;2022-10-16T04:30:34;7.24;79.43
67942;SHT31;54731;42.600;23.476;2022-10-16T04:33:00;7.23;79.46
67942;SHT31;54731;42.600;23.476;2022-10-16T04:35:26;7.26;79.38
67942;SHT31;54731;42.600;23.476;2022-10-16T04:37:51;7.20;79.36
67942;SHT31;54731;42.600;23.476;2022-10-16T04:40:17;7.17;79.05
67942;SHT31;54731;42.600;23.476;2022-10-16T04:42:42;7.23;79.21
67942;SHT31;54731;42.600;23.476;2022-10-16T04:45:08;7.20;79.13
67942;SHT31;54731;42.600;23.476;2022-10-16T04:47:33;7.20;78.90
67942;SHT31;54731;42.600;23.476;2022-10-16T04:49:58;7.19;78.91
67942;SHT31;54731;42.600;23.476;2022-10-16T04:52:24;7.17;79.16
67942;SHT31;54731;42.600;23.476;2022-10-16T04:54:49;7.22;79.00
67942;SHT31;54731;42.600;23.476;2022-10-16T04:57:15;7.22;78.99
67942;SHT31;54731;42.600;23.476;2022-10-16T04:59:40;7.26;78.93
67942;SHT31;54731;42.600;23.476;2022-10-16T05:02:05;7.24;78.88
67942;SHT31;54731;42.600;23.476;2022-10-16T05:04:30;7.23;78.97
67942;SHT31;54731;42.600;23.476;2022-10-16T05:06:56;7.22;79.02
67942;SHT31;54731;42.600;23.476;2022-10-16T05:09:21;7.20;78.93
67942;SHT31;54731;42.600;23.476;2022-10-16T05:11:47;7.22;80.05
67942;SHT31;54731;42.600;23.476;2022-10-16T05:14:12;7.27;80.09
67942;SHT31;54731;42.600;23.476;2022-10-16T05:16:37;7.24;79.77
67942;SHT31;54731;42.600;23.476;2022-10-16T05:19:03;7.26;79.56
67942;SHT31;54731;42.600;23.476;2022-10-16T05:21:28;7.24;79.52
67942;SHT31;54731;42.600;23.476;2022-10-16T05:23:53;7.16;79.76
67942;SHT31;54731;42.600;23.476;2022-10-16T05:26:19;7.15;79.68
67942;SHT31;54731;42.600;23.476;2022-10-16T05:28:44;7.20;80.07
67942;SHT31;54731;42.600;23.476;2022-10-16T05:31:09;7.26;79.80
67942;SHT31;54731;42.600;23.476;2022-10-16T05:33:35;7.22;79.87
67942;SHT31;54731;42.600;23.476;2022-10-16T05:36:05;7.19;79.98
67942;SHT31;54731;42.600;23.476;2022-10-16T05:38:30;7.26;80.06
67942;SHT31;54731;42.600;23.476;2022-10-16T05:40:56;7.28;80.16
67942;SHT31;54731;42.600;23.476;2022-10-16T05:43:21;7.28;80.37
67942;SHT31;54731;42.600;23.476;2022-10-16T05:46:03;7.30;80.61
67942;SHT31;54731;42.600;23.476;2022-10-16T05:48:29;7.30;80.64
67942;SHT31;54731;42.600;23.476;2022-10-16T05:51:05;7.34;80.53
67942;SHT31;54731;42.600;23.476;2022-10-16T05:53:33;7.36;80.66
67942;SHT31;54731;42.600;23.476;2022-10-16T05:55:59;7.40;80.52
67942;SHT31;54731;42.600;23.476;2022-10-16T05:58:27;7.46;80.39
67942;SHT31;54731;42.600;23.476;2022-10-16T06:00:58;7.46;80.29
67942;SHT31;54731;42.600;23.476;2022-10-16T06:03:24;7.51;80.55
67942;SHT31;54731;42.600;23.476;2022-10-16T06:05:50;7.50;80.70
67942;SHT31;54731;42.600;23.476;2022-10-16T06:08:16;7.51;81.00
67942;SHT31;54731;42.600;23.476;2022-10-16T06:10:41;7.54;81.13
67942;SHT31;54731;42.600;23.476;2022-10-16T06:13:07;7.56;81.02
67942;SHT31;54731;42.600;23.476;2022-10-16T06:15:32;7.58;81.12
67942;SHT31;54731;42.600;23.476;2022-10-16T06:17:58;7.66;81.53
67942;SHT31;54731;42.600;23.476;2022-10-16T06:20:23;7.60;81.92
67942;SHT31;54731;42.600;23.476;2022-10-16T06:22:48;7.73;82.35
67942;SHT31;54731;42.600;23.476;2022-10-16T06:25:13;7.70;81.88
67942;SHT31;54731;42.600;23.476;2022-10-16T06:27:40;7.73;81.51
67942;SHT31;54731;42.600;23.476;2022-10-16T06:30:06;7.75;81.95
67942;SHT31;54731;42.600;23.476;2022-10-16T06:32:31;7.74;81.95
67942;SHT31;54731;42.600;23.476;2022-10-16T06:34:57;7.78;81.82
67942;SHT31;54731;42.600;23.476;2022-10-16T06:37:22;7.78;82.05
67942;SHT31;54731;42.600;23.476;2022-10-16T06:39:47;7.85;82.27
67942;SHT31;54731;42.600;23.476;2022-10-16T06:42:13;7.87;82.27
67942;SHT31;54731;42.600;23.476;2022-10-16T06:44:38;7.92;81.93
67942;SHT31;54731;42.600;23.476;2022-10-16T06:47:03;7.99;81.88
67942;SHT31;54731;42.600;23.476;2022-10-16T06:49:29;8.01;81.45
67942;SHT31;54731;42.600;23.476;2022-10-16T06:51:54;8.05;81.51
67942;SHT31;54731;42.600;23.476;2022-10-16T06:54:19;8.09;81.54
67942;SHT31;54731;42.600;23.476;2022-10-16T06:56:45;8.15;81.33
67942;SHT31;54731;42.600;23.476;2022-10-16T06:59:10;8.12;81.23
67942;SHT31;54731;42.600;23.476;2022-10-16T07:01:35;8.15;81.34
67942;SHT31;54731;42.600;23.476;2022-10-16T07:04:01;8.22;80.94
67942;SHT31;54731;42.600;23.476;2022-10-16T07:06:27;8.22;80.85
67942;SHT31;54731;42.600;23.476;2022-10-16T07:08:52;8.29;80.71
67942;SHT31;54731;42.600;23.476;2022-10-16T07:11:20;8.36;80.88
67942;SHT31;54731;42.600;23.476;2022-10-16T07:13:46;8.39;81.05
67942;SHT31;54731;42.600;23.476;2022-10-16T07:16:18;8.45;80.69
67942;SHT31;54731;42.600;23.476;2022-10-16T07:18:44;8.49;80.63
67942;SHT31;54731;42.600;23.476;2022-10-16T07:21:13;8.56;80.85
67942;SHT31;54731;42.600;23.476;2022-10-16T07:23:39;8.60;80.78
67942;SHT31;54731;42.600;23.476;2022-10-16T07:26:05;8.66;80.56
67942;SHT31;54731;42.600;23.476;2022-10-16T07:28:31;8.73;80.64
67942;SHT31;54731;42.600;23.476;2022-10-16T07:31:08;8.79;80.66
67942;SHT31;54731;42.600;23.476;2022-10-16T07:33:35;8.83;80.93
67942;SHT31;54731;42.600;23.476;2022-10-16T07:36:00;8.90;81.09
67942;SHT31;54731;42.600;23.476;2022-10-16T07:38:26;8.99;80.68
67942;SHT31;54731;42.600;23.476;2022-10-16T07:40:58;9.08;80.06
67942;SHT31;54731;42.600;23.476;2022-10-16T07:43:25;9.13;79.02
67942;SHT31;54731;42.600;23.476;2022-10-16T07:45:50;9.23;78.46
67942;SHT31;54731;42.600;23.476;2022-10-16T07:48:16;9.31;78.05
67942;SHT31;54731;42.600;23.476;2022-10-16T07:50:43;9.39;78.12
67942;SHT31;54731;42.600;23.476;2022-10-16T07:53:08;9.51;77.27
67942;SHT31;54731;42.600;23.476;2022-10-16T07:55:34;9.63;76.73
67942;SHT31;54731;42.600;23.476;2022-10-16T07:57:59;9.69;76.01
67942;SHT31;54731;42.600;23.476;2022-10-16T08:00:24;9.75;74.24
67942;SHT31;54731;42.600;23.476;2022-10-16T08:02:50;9.85;74.81
67942;SHT31;54731;42.600;23.476;2022-10-16T08:05:15;9.93;74.20
67942;SHT31;54731;42.600;23.476;2022-10-16T08:07:40;9.99;74.05
67942;SHT31;54731;42.600;23.476;2022-10-16T08:10:06;10.08;72.64
67942;SHT31;54731;42.600;23.476;2022-10-16T08:12:31;10.16;72.50
67942;SHT31;54731;42.600;23.476;2022-10-16T08:14:57;10.23;72.52
67942;SHT31;54731;42.600;23.476;2022-10-16T08:17:22;10.29;72.54
67942;SHT31;54731;42.600;23.476;2022-10-16T08:19:47;10.34;73.02
67942;SHT31;54731;42.600;23.476;2022-10-16T08:22:13;10.42;72.80
67942;SHT31;54731;42.600;23.476;2022-10-16T08:24:39;10.50;72.36
67942;SHT31;54731;42.600;23.476;2022-10-16T08:27:04;10.52;71.56
67942;SHT31;54731;42.600;23.476;2022-10-16T08:29:30;10.59;71.00
67942;SHT31;54731;42.600;23.476;2022-10-16T08:31:55;10.59;70.57
67942;SHT31;54731;42.600;23.476;2022-10-16T08:34:21;10.57;70.62
67942;SHT31;54731;42.600;23.476;2022-10-16T08:36:46;10.61;71.64
67942;SHT31;54731;42.600;23.476;2022-10-16T08:39:11;10.70;70.20
67942;SHT31;54731;42.600;23.476;2022-10-16T08:47:25;10.85;69.26
67942;SHT31;54731;42.600;23.476;2022-10-16T08:49:59;10.93;68.55
67942;SHT31;54731;42.600;23.476;2022-10-16T08:52:34;10.93;68.47
67942;SHT31;54731;42.600;23.476;2022-10-16T08:55:01;10.97;68.45
67942;SHT31;54731;42.600;23.476;2022-10-16T08:57:27;11.05;67.78
67942;SHT31;54731;42.600;23.476;2022-10-16T08:59:53;11.12;67.10
67942;SHT31;54731;42.600;23.476;2022-10-16T09:08:26;11.34;66.59
67942;SHT31;54731;42.600;23.476;2022-10-16T09:21:22;11.82;64.88
67942;SHT31;54731;42.600;23.476;2022-10-16T09:23:48;11.89;64.35
67942;SHT31;54731;42.600;23.476;2022-10-16T09:26:16;12.03;64.35
67942;SHT31;54731;42.600;23.476;2022-10-16T09:28:42;12.03;63.83
67942;SHT31;54731;42.600;23.476;2022-10-16T09:31:19;12.14;65.06
67942;SHT31;54731;42.600;23.476;2022-10-16T09:33:50;12.26;65.18
67942;SHT31;54731;42.600;23.476;2022-10-16T09:36:18;12.37;66.45
67942;SHT31;54731;42.600;23.476;2022-10-16T09:38:44;12.47;66.04
67942;SHT31;54731;42.600;23.476;2022-10-16T09:41:22;12.57;65.77
67942;SHT31;54731;42.600;23.476;2022-10-16T09:43:56;12.69;65.40
67942;SHT31;54731;42.600;23.476;2022-10-16T09:46:28;12.80;65.78
67942;SHT31;54731;42.600;23.476;2022-10-16T09:48:59;12.85;64.81
67942;SHT31;54731;42.600;23.476;2022-10-16T09:51:34;12.92;64.72
67942;SHT31;54731;42.600;23.476;2022-10-16T09:56:37;13.09;63.39
67942;SHT31;54731;42.600;23.476;2022-10-16T09:59:11;13.14;62.72
67942;SHT31;54731;42.600;23.476;2022-10-16T10:01:39;13.26;63.29
67942;SHT31;54731;42.600;23.476;2022-10-16T10:04:05;13.42;63.20
67942;SHT31;54731;42.600;23.476;2022-10-16T10:06:34;13.59;63.31
67942;SHT31;54731;42.600;23.476;2022-10-16T10:09:02;13.71;61.76
67942;SHT31;54731;42.600;23.476;2022-10-16T10:11:46;13.80;60.91
67942;SHT31;54731;42.600;23.476;2022-10-16T10:14:20;13.91;60.57
67942;SHT31;54731;42.600;23.476;2022-10-16T10:16:47;13.97;59.62
67942;SHT31;54731;42.600;23.476;2022-10-16T10:19:18;14.06;60.25
67942;SHT31;54731;42.600;23.476;2022-10-16T10:21:44;14.18;59.59
67942;SHT31;54731;42.600;23.476;2022-10-16T10:24:14;14.24;60.46
67942;SHT31;54731;42.600;23.476;2022-10-16T10:32:17;14.61;56.95
67942;SHT31;54731;42.600;23.476;2022-10-16T10:44:15;15.00;56.08
67942;SHT31;54731;42.600;23.476;2022-10-16T10:50:33;15.22;54.06
67942;SHT31;54731;42.600;23.476;2022-10-16T10:52:41;15.25;54.46
67942;SHT31;54731;42.600;23.476;2022-10-16T10:55:24;15.39;54.59
67942;SHT31;54731;42.600;23.476;2022-10-16T11:00:47;15.61;52.32
67942;SHT31;54731;42.600;23.476;2022-10-16T11:05:41;15.87;54.86
67942;SHT31;54731;42.600;23.476;2022-10-16T11:08:16;16.02;48.20
67942;SHT31;54731;42.600;23.476;2022-10-16T11:13:39;16.26;48.66
67942;SHT31;54731;42.600;23.476;2022-10-16T11:16:27;16.38;47.73
67942;SHT31;54731;42.600;23.476;2022-10-16T11:18:58;16.59;48.62
67942;SHT31;54731;42.600;23.476;2022-10-16T11:21:24;16.79;47.19
67942;SHT31;54731;42.600;23.476;2022-10-16T11:24:13;17.05;46.69
67942;SHT31;54731;42.600;23.476;2022-10-16T11:26:42;17.26;44.32
67942;SHT31;54731;42.600;23.476;2022-10-16T11:29:16;17.51;45.27
67942;SHT31;54731;42.600;23.476;2022-10-16T11:31:49;18.00;44.25
67942;SHT31;54731;42.600;23.476;2022-10-16T11:34:23;18.22;42.88
67942;SHT31;54731;42.600;23.476;2022-10-16T11:36:51;18.25;40.66
67942;SHT31;54731;42.600;23.476;2022-10-16T11:41:51;19.04;39.85
67942;SHT31;54731;42.600;23.476;2022-10-16T11:49:57;19.98;37.72
67942;SHT31;54731;42.600;23.476;2022-10-16T11:52:31;20.39;37.03
67942;SHT31;54731;42.600;23.476;2022-10-16T11:55:08;20.72;37.42
67942;SHT31;54731;42.600;23.476;2022-10-16T11:57:47;21.05;37.41
67942;SHT31;54731;42.600;23.476;2022-10-16T12:00:19;21.42;33.93
67942;SHT31;54731;42.600;23.476;2022-10-16T12:03:11;21.51;32.44
67942;SHT31;54731;42.600;23.476;2022-10-16T12:08:34;22.05;34.42
67942;SHT31;54731;42.600;23.476;2022-10-16T12:11:23;22.46;34.54
67942;SHT31;54731;42.600;23.476;2022-10-16T12:13:49;22.28;31.79
67942;SHT31;54731;42.600;23.476;2022-10-16T12:18:45;22.46;32.30
67942;SHT31;54731;42.600;23.476;2022-10-16T12:21:13;22.80;31.81
67942;SHT31;54731;42.600;23.476;2022-10-16T12:24:02;23.12;33.10
67942;SHT31;54731;42.600;23.476;2022-10-16T12:26:31;23.62;32.08
67942;SHT31;54731;42.600;23.476;2022-10-16T12:29:14;23.79;32.48
67942;SHT31;54731;42.600;23.476;2022-10-16T12:31:47;24.10;31.54
67942;SHT31;54731;42.600;23.476;2022-10-16T12:34:45;23.72;27.58
67942;SHT31;54731;42.600;23.476;2022-10-16T12:39:44;24.14;30.20
67942;SHT31;54731;42.600;23.476;2022-10-16T12:42:30;24.20;29.52
67942;SHT31;54731;42.600;23.476;2022-10-16T12:44:56;24.43;29.53
67942;SHT31;54731;42.600;23.476;2022-10-16T12:49:58;23.82;30.56
67942;SHT31;54731;42.600;23.476;2022-10-16T12:54:51;24.19;30.97
67942;SHT31;54731;42.600;23.476;2022-10-16T13:00:59;24.10;31.10
67942;SHT31;54731;42.600;23.476;2022-10-16T13:03:25;24.34;29.48
67942;SHT31;54731;42.600;23.476;2022-10-16T13:06:22;24.61;29.82
67942;SHT31;54731;42.600;23.476;2022-10-16T13:09:15;24.26;28.79
67942;SHT31;54731;42.600;23.476;2022-10-16T13:28:29;24.96;31.93
67942;SHT31;54731;42.600;23.476;2022-10-16T13:30:58;25.01;28.28
67942;SHT31;54731;42.600;23.476;2022-10-16T13:33:32;24.94;30.93
67942;SHT31;54731;42.600;23.476;2022-10-16T13:35:58;25.19;29.98
67942;SHT31;54731;42.600;23.476;2022-10-16T13:38:26;25.25;30.09
67942;SHT31;54731;42.600;23.476;2022-10-16T13:40:55;25.38;28.64
67942;SHT31;54731;42.600;23.476;2022-10-16T13:43:33;25.12;27.29
67942;SHT31;54731;42.600;23.476;2022-10-16T13:46:05;25.02;27.03
67942;SHT31;54731;42.600;23.476;2022-10-16T13:48:31;24.82;25.97
67942;SHT31;54731;42.600;23.476;2022-10-16T13:53:36;25.02;29.69
67942;SHT31;54731;42.600;23.476;2022-10-16T13:56:04;25.41;29.83
67942;SHT31;54731;42.600;23.476;2022-10-16T13:58:29;25.34;27.61
67942;SHT31;54731;42.600;23.476;2022-10-16T14:00:57;25.29;27.89
67942;SHT31;54731;42.600;23.476;2022-10-16T14:03:24;25.10;27.15
67942;SHT31;54731;42.600;23.476;2022-10-16T14:05:52;25.08;28.12
67942;SHT31;54731;42.600;23.476;2022-10-16T14:08:19;25.04;29.56
67942;SHT31;54731;42.600;23.476;2022-10-16T14:10:49;25.19;28.58
67942;SHT31;54731;42.600;23.476;2022-10-16T14:13:19;25.11;27.93
67942;SHT31;54731;42.600;23.476;2022-10-16T14:15:49;25.12;28.32
67942;SHT31;54731;42.600;23.476;2022-10-16T14:18:20;24.80;28.31
67942;SHT31;54731;42.600;23.476;2022-10-16T14:20:46;24.21;29.32
67942;SHT31;54731;42.600;23.476;2022-10-16T14:23:21;24.00;28.62
67942;SHT31;54731;42.600;23.476;2022-10-16T14:25:47;24.05;29.59
67942;SHT31;54731;42.600;23.476;2022-10-16T14:30:55;23.87;30.07
67942;SHT31;54731;42.600;23.476;2022-10-16T14:33:23;23.70;31.68
67942;SHT31;54731;42.600;23.476;2022-10-16T14:36:18;23.10;31.09
67942;SHT31;54731;42.600;23.476;2022-10-16T14:39:14;22.88;32.27
67942;SHT31;54731;42.600;23.476;2022-10-16T14:41:46;22.63;32.90
67942;SHT31;54731;42.600;23.476;2022-10-16T14:44:12;22.30;33.23
67942;SHT31;54731;42.600;23.476;2022-10-16T14:46:40;21.92;33.09
67942;SHT31;54731;42.600;23.476;2022-10-16T14:51:38;21.62;34.84
67942;SHT31;54731;42.600;23.476;2022-10-16T14:54:04;21.45;35.56
67942;SHT31;54731;42.600;23.476;2022-10-16T14:56:32;21.17;35.55
67942;SHT31;54731;42.600;23.476;2022-10-16T14:59:00;21.00;35.25
67942;SHT31;54731;42.600;23.476;2022-10-16T15:01:25;20.80;35.83
67942;SHT31;54731;42.600;23.476;2022-10-16T15:03:50;20.57;37.00
67942;SHT31;54731;42.600;23.476;2022-10-16T15:06:16;20.43;37.06
67942;SHT31;54731;42.600;23.476;2022-10-16T15:08:42;19.99;37.24
67942;SHT31;54731;42.600;23.476;2022-10-16T15:11:16;19.79;37.12
67942;SHT31;54731;42.600;23.476;2022-10-16T15:13:42;19.50;38.21
67942;SHT31;54731;42.600;23.476;2022-10-16T15:16:11;19.17;38.70
67942;SHT31;54731;42.600;23.476;2022-10-16T15:18:37;18.96;39.14
67942;SHT31;54731;42.600;23.476;2022-10-16T15:21:02;18.72;38.72
67942;SHT31;54731;42.600;23.476;2022-10-16T15:23:28;18.38;40.32
67942;SHT31;54731;42.600;23.476;2022-10-16T15:25:55;18.33;40.35
67942;SHT31;54731;42.600;23.476;2022-10-16T15:28:21;18.11;40.59
67942;SHT31;54731;42.600;23.476;2022-10-16T15:30:50;17.73;40.74
67942;SHT31;54731;42.600;23.476;2022-10-16T15:33:17;17.57;41.43
67942;SHT31;54731;42.600;23.476;2022-10-16T15:35:46;17.44;41.11
67942;SHT31;54731;42.600;23.476;2022-10-16T15:38:12;17.07;42.30
67942;SHT31;54731;42.600;23.476;2022-10-16T15:40:38;16.90;42.82
67942;SHT31;54731;42.600;23.476;2022-10-16T15:43:03;16.73;43.69
67942;SHT31;54731;42.600;23.476;2022-10-16T15:45:29;16.63;43.68
67942;SHT31;54731;42.600;23.476;2022-10-16T15:47:54;16.45;43.38
67942;SHT31;54731;42.600;23.476;2022-10-16T15:50:19;16.25;43.70
67942;SHT31;54731;42.600;23.476;2022-10-16T15:52:45;15.97;44.13
67942;SHT31;54731;42.600;23.476;2022-10-16T15:55:12;15.70;44.59
67942;SHT31;54731;42.600;23.476;2022-10-16T15:57:38;15.46;45.32
67942;SHT31;54731;42.600;23.476;2022-10-16T16:00:08;15.37;45.70
67942;SHT31;54731;42.600;23.476;2022-10-16T16:02:34;15.22;45.98
67942;SHT31;54731;42.600;23.476;2022-10-16T16:04:59;15.00;46.42
67942;SHT31;54731;42.600;23.476;2022-10-16T16:07:25;14.82;46.86
67942;SHT31;54731;42.600;23.476;2022-10-16T16:09:50;14.71;47.39
67942;SHT31;54731;42.600;23.476;2022-10-16T16:12:15;14.51;47.99
67942;SHT31;54731;42.600;23.476;2022-10-16T16:14:41;14.40;48.72
67942;SHT31;54731;42.600;23.476;2022-10-16T16:17:06;14.18;48.70
67942;SHT31;54731;42.600;23.476;2022-10-16T16:19:32;14.00;49.61
67942;SHT31;54731;42.600;23.476;2022-10-16T16:21:57;13.97;49.45
67942;SHT31;54731;42.600;23.476;2022-10-16T16:24:23;13.90;48.98
67942;SHT31;54731;42.600;23.476;2022-10-16T16:26:48;13.77;49.36
67942;SHT31;54731;42.600;23.476;2022-10-16T16:29:15;13.73;49.50
67942;SHT31;54731;42.600;23.476;2022-10-16T16:31:41;13.65;49.45
67942;SHT31;54731;42.600;23.476;2022-10-16T16:34:07;13.43;50.57
67942;SHT31;54731;42.600;23.476;2022-10-16T16:36:33;13.25;50.76
67942;SHT31;54731;42.600;23.476;2022-10-16T16:38:59;13.12;51.30
67942;SHT31;54731;42.600;23.476;2022-10-16T16:41:29;13.15;50.78
67942;SHT31;54731;42.600;23.476;2022-10-16T16:43:55;13.22;50.57
67942;SHT31;54731;42.600;23.476;2022-10-16T16:46:21;13.12;51.23
67942;SHT31;54731;42.600;23.476;2022-10-16T16:48:46;13.08;51.27
67942;SHT31;54731;42.600;23.476;2022-10-16T16:51:14;13.05;51.24
67942;SHT31;54731;42.600;23.476;2022-10-16T16:53:40;13.01;51.31
67942;SHT31;54731;42.600;23.476;2022-10-16T16:56:05;12.98;51.45
67942;SHT31;54731;42.600;23.476;2022-10-16T16:58:31;12.98;51.22
67942;SHT31;54731;42.600;23.476;2022-10-16T17:00:57;12.88;51.72
67942;SHT31;54731;42.600;23.476;2022-10-16T17:03:22;12.80;52.66
67942;SHT31;54731;42.600;23.476;2022-10-16T17:06:03;12.63;53.81
67942;SHT31;54731;42.600;23.476;2022-10-16T17:08:29;12.61;53.47
67942;SHT31;54731;42.600;23.476;2022-10-16T17:10:54;12.57;53.77
67942;SHT31;54731;42.600;23.476;2022-10-16T17:13:22;12.71;52.77
67942;SHT31;54731;42.600;23.476;2022-10-16T17:15:49;12.53;54.02
67942;SHT31;54731;42.600;23.476;2022-10-16T17:18:15;12.43;55.09
67942;SHT31;54731;42.600;23.476;2022-10-16T17:20:41;12.40;54.51
67942;SHT31;54731;42.600;23.476;2022-10-16T17:23:06;12.41;54.31